Time,TemperatureF,DewpointF,PressureIn,WindDirection,WindDirectionDegrees,WindSpeedMPH,WindSpeedGustMPH,Humidity,HourlyPrecipIn,Conditions,Clouds,dailyrainin,SolarRadiationWatts/m^2,SoftwareType,DateUTC
2013-04-29 00:02:00,26.0,16.0,-100.00,NW,323,0.0,4.0,64,0.00,,,0.00,0.000000,,2013-04-29 08:02:00,
2013-04-29 00:11:00,26.0,16.0,-100.00,NW,323,0.0,4.0,64,0.00,,,0.00,0.000000,,2013-04-29 08:11:00,
2013-04-29 00:42:00,24.0,14.0,-100.00,SSW,200,0.0,3.0,65,0.00,,,0.00,0.000000,,2013-04-29 08:42:00,
2013-04-29 00:52:00,24.0,14.0,-100.00,SSW,200,0.0,3.0,65,0.00,,,0.00,0.000000,,2013-04-29 08:52:00,
2013-04-29 01:01:00,24.0,14.0,-100.00,SSW,200,0.0,3.0,65,0.00,,,0.00,0.000000,,2013-04-29 09:01:00,
2013-04-29 01:11:00,24.0,14.0,-100.00,SSW,200,0.0,3.0,65,0.00,,,0.00,0.000000,,2013-04-29 09:11:00,
2013-04-29 01:42:00,23.0,15.0,-100.00,North,352,1.0,2.0,71,0.00,,,0.00,0.000000,,2013-04-29 09:42:00,
2013-04-29 01:53:00,23.0,15.0,-100.00,North,352,1.0,2.0,71,0.00,,,0.00,0.000000,,2013-04-29 09:53:00,
2013-04-29 02:02:00,23.0,15.0,-100.00,North,352,1.0,2.0,71,0.00,,,0.00,0.000000,,2013-04-29 10:02:00,
2013-04-29 02:12:00,23.0,15.0,-100.00,North,352,1.0,2.0,71,0.00,,,0.00,0.000000,,2013-04-29 10:12:00,
2013-04-29 02:42:00,19.0,12.0,-100.00,SSE,157,0.0,0.0,74,0.00,,,0.00,0.000000,,2013-04-29 10:42:00,
2013-04-29 02:52:00,19.0,12.0,-100.00,SSE,157,0.0,0.0,74,0.00,,,0.00,0.000000,,2013-04-29 10:52:00,
2013-04-29 03:42:00,17.0,11.0,-100.00,SE,141,0.0,2.0,78,-99.99,,,0.00,0.000000,,2013-04-29 11:42:00,
2013-04-29 03:52:00,17.0,11.0,-100.00,SE,141,0.0,2.0,78,-99.99,,,0.00,0.000000,,2013-04-29 11:52:00,
2013-04-29 04:42:00,16.0,11.0,-100.00,WNW,301,0.0,2.0,81,-99.99,,,0.00,0.000000,,2013-04-29 12:42:00,
2013-04-29 04:52:00,16.0,11.0,-100.00,WNW,301,0.0,2.0,81,-99.99,,,0.00,0.000000,,2013-04-29 12:52:00,
2013-04-29 05:42:00,13.0,9.0,-100.00,South,190,0.0,0.0,85,0.00,,,0.00,0.000000,,2013-04-29 13:42:00,
2013-04-29 05:52:00,13.0,9.0,-100.00,South,190,0.0,0.0,85,0.00,,,0.00,0.000000,,2013-04-29 13:52:00,
2013-04-29 06:42:00,13.0,9.0,-100.00,West,265,0.0,0.0,84,-99.99,,,0.00,14.000000,,2013-04-29 14:42:00,
2013-04-29 06:52:00,13.0,9.0,-100.00,West,265,0.0,0.0,84,-99.99,,,0.00,14.000000,,2013-04-29 14:52:00,
2013-04-29 07:43:00,20.0,15.0,-100.00,East,79,0.0,1.0,80,-99.99,,,0.00,58.000000,,2013-04-29 15:43:00,
2013-04-29 07:53:00,20.0,15.0,-100.00,East,79,0.0,1.0,80,-99.99,,,0.00,58.000000,,2013-04-29 15:53:00,
2013-04-29 08:02:00,20.0,15.0,-100.00,East,79,0.0,1.0,80,-99.99,,,0.00,58.000000,,2013-04-29 16:02:00,
2013-04-29 08:12:00,20.0,15.0,-100.00,East,79,0.0,1.0,80,-99.99,,,0.00,58.000000,,2013-04-29 16:12:00,
2013-04-29 08:42:00,25.0,15.0,-100.00,ENE,73,1.0,4.0,64,0.00,,,0.00,115.000000,,2013-04-29 16:42:00,
2013-04-29 08:52:00,25.0,15.0,-100.00,ENE,73,1.0,4.0,64,0.00,,,0.00,115.000000,,2013-04-29 16:52:00,
2013-04-29 09:02:00,25.0,15.0,-100.00,ENE,73,1.0,4.0,64,0.00,,,0.00,115.000000,,2013-04-29 17:02:00,
2013-04-29 09:11:00,25.0,15.0,-100.00,ENE,73,1.0,4.0,64,0.00,,,0.00,115.000000,,2013-04-29 17:11:00,
2013-04-29 09:42:00,29.0,14.0,-100.00,NNE,14,1.0,3.0,54,0.00,,,0.00,212.000000,,2013-04-29 17:42:00,
2013-04-29 09:52:00,29.0,14.0,-100.00,NNE,14,1.0,3.0,54,0.00,,,0.00,212.000000,,2013-04-29 17:52:00,
2013-04-29 10:01:00,29.0,14.0,-100.00,NNE,14,1.0,3.0,54,0.00,,,0.00,212.000000,,2013-04-29 18:01:00,
2013-04-29 10:12:00,29.0,14.0,-100.00,NNE,14,1.0,3.0,54,0.00,,,0.00,212.000000,,2013-04-29 18:12:00,
2013-04-29 10:42:00,32.0,18.0,-100.00,WSW,237,2.0,8.0,56,0.00,,,0.00,220.000000,,2013-04-29 18:42:00,
2013-04-29 10:52:00,32.0,18.0,-100.00,WSW,237,2.0,8.0,56,0.00,,,0.00,220.000000,,2013-04-29 18:52:00,
2013-04-29 11:01:00,32.0,18.0,-100.00,WSW,237,2.0,8.0,56,0.00,,,0.00,220.000000,,2013-04-29 19:01:00,
2013-04-29 11:11:00,32.0,18.0,-100.00,WSW,237,2.0,8.0,56,0.00,,,0.00,220.000000,,2013-04-29 19:11:00,
2013-04-29 11:42:00,33.0,19.0,-100.00,SSW,210,3.0,9.0,55,0.00,,,0.00,337.000000,,2013-04-29 19:42:00,
2013-04-29 11:52:00,33.0,19.0,-100.00,SSW,210,3.0,9.0,55,0.00,,,0.00,337.000000,,2013-04-29 19:52:00,
2013-04-29 12:02:00,33.0,19.0,-100.00,SSW,210,3.0,9.0,55,0.00,,,0.00,337.000000,,2013-04-29 20:02:00,
2013-04-29 12:11:00,33.0,19.0,-100.00,SSW,210,3.0,9.0,55,0.00,,,0.00,337.000000,,2013-04-29 20:11:00,
2013-04-29 12:42:00,33.0,20.0,-100.00,SW,232,3.0,10.0,59,0.00,,,0.00,335.000000,,2013-04-29 20:42:00,
2013-04-29 12:52:00,33.0,20.0,-100.00,SW,232,3.0,10.0,59,0.00,,,0.00,335.000000,,2013-04-29 20:52:00,
2013-04-29 13:01:00,33.0,20.0,-100.00,SW,232,3.0,10.0,59,0.00,,,0.00,335.000000,,2013-04-29 21:01:00,
2013-04-29 13:11:00,33.0,20.0,-100.00,SW,232,3.0,10.0,59,0.00,,,0.00,335.000000,,2013-04-29 21:11:00,
2013-04-29 13:43:00,33.0,22.0,-100.00,SW,229,3.0,10.0,64,0.00,,,0.00,302.000000,,2013-04-29 21:43:00,
2013-04-29 13:53:00,33.0,22.0,-100.00,SW,229,3.0,10.0,64,0.00,,,0.00,302.000000,,2013-04-29 21:53:00,
2013-04-29 14:02:00,33.0,22.0,-100.00,SW,229,3.0,10.0,64,0.00,,,0.00,302.000000,,2013-04-29 22:02:00,
2013-04-29 14:13:00,33.0,22.0,-100.00,SW,229,3.0,10.0,64,0.00,,,0.00,302.000000,,2013-04-29 22:13:00,
2013-04-29 14:42:00,34.0,22.0,-100.00,WSW,247,3.0,12.0,61,0.00,,,0.00,344.000000,,2013-04-29 22:42:00,
2013-04-29 14:52:00,34.0,22.0,-100.00,WSW,247,3.0,12.0,61,0.00,,,0.00,344.000000,,2013-04-29 22:52:00,
2013-04-29 15:02:00,34.0,22.0,-100.00,WSW,247,3.0,12.0,61,0.00,,,0.00,344.000000,,2013-04-29 23:02:00,
2013-04-29 15:11:00,34.0,22.0,-100.00,WSW,247,3.0,12.0,61,0.00,,,0.00,344.000000,,2013-04-29 23:11:00,
2013-04-29 15:42:00,35.0,22.0,-100.00,West,273,4.0,11.0,59,0.00,,,0.00,319.000000,,2013-04-29 23:42:00,
2013-04-29 15:52:00,35.0,22.0,-100.00,West,273,4.0,11.0,59,0.00,,,0.00,319.000000,,2013-04-29 23:52:00,
2013-04-29 16:01:00,35.0,22.0,-100.00,West,273,4.0,11.0,59,0.00,,,0.00,319.000000,,2013-04-30 00:01:00,
2013-04-29 16:11:00,35.0,22.0,-100.00,West,273,4.0,11.0,59,0.00,,,0.00,319.000000,,2013-04-30 00:11:00,
2013-04-29 16:42:00,35.0,23.0,-100.00,WSW,255,3.0,12.0,60,0.00,,,0.00,305.000000,,2013-04-30 00:42:00,
2013-04-29 16:52:00,35.0,23.0,-100.00,WSW,255,3.0,12.0,60,0.00,,,0.00,305.000000,,2013-04-30 00:52:00,
2013-04-29 17:01:00,35.0,23.0,-100.00,WSW,255,3.0,12.0,60,0.00,,,0.00,305.000000,,2013-04-30 01:01:00,
2013-04-29 17:11:00,35.0,23.0,-100.00,WSW,255,3.0,12.0,60,0.00,,,0.00,305.000000,,2013-04-30 01:11:00,
2013-04-29 17:42:00,36.0,24.0,-100.00,SSW,192,3.0,10.0,61,0.00,,,0.00,276.000000,,2013-04-30 01:42:00,
2013-04-29 17:52:00,36.0,24.0,-100.00,SSW,192,3.0,10.0,61,0.00,,,0.00,276.000000,,2013-04-30 01:52:00,
2013-04-29 18:01:00,36.0,24.0,-100.00,SSW,192,3.0,10.0,61,0.00,,,0.00,276.000000,,2013-04-30 02:01:00,
2013-04-29 18:11:00,36.0,24.0,-100.00,SSW,192,3.0,10.0,61,0.00,,,0.00,276.000000,,2013-04-30 02:11:00,
2013-04-29 18:51:00,35.0,27.0,-100.00,SSW,211,2.0,8.0,71,0.00,,,0.00,255.000000,,2013-04-30 02:51:00,
2013-04-29 19:01:00,35.0,27.0,-100.00,SSW,211,2.0,8.0,71,0.00,,,0.00,255.000000,,2013-04-30 03:01:00,
2013-04-29 19:11:00,35.0,27.0,-100.00,SSW,211,2.0,8.0,71,0.00,,,0.00,255.000000,,2013-04-30 03:11:00,
2013-04-29 20:52:00,33.0,27.0,-100.00,SSW,209,1.0,6.0,79,-99.99,,,0.00,121.000000,,2013-04-30 04:52:00,
2013-04-29 21:02:00,33.0,27.0,-100.00,SSW,209,1.0,6.0,79,-99.99,,,0.00,121.000000,,2013-04-30 05:02:00,
2013-04-29 21:11:00,33.0,27.0,-100.00,SSW,209,1.0,6.0,79,-99.99,,,0.00,121.000000,,2013-04-30 05:11:00,
2013-04-29 22:42:00,29.0,27.0,-100.00,SSE,156,0.0,1.0,93,-99.99,,,0.00,6.000000,,2013-04-30 06:42:00,
2013-04-29 22:52:00,29.0,27.0,-100.00,SSE,156,0.0,1.0,93,-99.99,,,0.00,6.000000,,2013-04-30 06:52:00,
2013-04-29 23:01:00,29.0,27.0,-100.00,SSE,156,0.0,1.0,93,-99.99,,,0.00,6.000000,,2013-04-30 07:01:00,
2013-04-29 23:11:00,29.0,27.0,-100.00,SSE,156,0.0,1.0,93,-99.99,,,0.00,6.000000,,2013-04-30 07:11:00,
2013-04-29 23:42:00,29.0,28.0,-100.00,SE,136,0.0,1.0,96,0.00,,,0.00,0.000000,,2013-04-30 07:42:00,
2013-04-29 23:52:00,29.0,28.0,-100.00,SE,136,0.0,1.0,96,0.00,,,0.00,0.000000,,2013-04-30 07:52:00,